Calvinia, South Africa
Current Conditions -  °F | °C
As of 2:00 PM on Thursday 27 Nov 2014 (Local Time) from FACT Reporting Station
Broken Clouds Broken Clouds  
Wind Chill: 73°   Ceiling: 2500
Heat Index: 73°   Visibility: 6mi
Dew Point: 55°   Wind: 15mph
Humidity: 53%   Direction: 250°WSW
Pressure: 29.91"   Gusts: NA
Location:  31.47°S, 19.77°E
Report Text: FACT 271200Z 25013KT 210V280 9999 BKN025 23/13 Q1013 NOSIG
Loading
Personal Weather Stations






























Interactive Weather Map New forecast layout! Learn more

10-Day Weather Forecast

Advertisements
Track Severe Weather on mobile